createdAt,value
2023-02-18T00:00:21.971Z,101249.25
2023-02-18T00:02:50.325Z,101249.91
2023-02-18T00:05:18.292Z,101252.94
2023-02-18T00:07:45.202Z,101250.03
2023-02-18T00:10:14.110Z,101244.00
2023-02-18T00:12:40.842Z,101247.06
2023-02-18T00:15:09.538Z,101247.31
2023-02-18T00:17:36.417Z,101250.84
2023-02-18T00:20:04.189Z,101246.56
2023-02-18T00:22:30.873Z,101240.09
2023-02-18T00:24:57.431Z,101242.38
2023-02-18T00:27:24.198Z,101234.41
2023-02-18T00:29:50.740Z,101235.28
2023-02-18T00:32:17.339Z,101226.50
2023-02-18T00:34:43.925Z,101217.13
2023-02-18T00:37:10.463Z,101218.09
2023-02-18T00:39:37.122Z,101209.50
2023-02-18T00:42:03.863Z,101212.06
2023-02-18T00:44:30.387Z,101210.50
2023-02-18T00:46:57.351Z,101207.63
2023-02-18T00:49:23.989Z,101200.94
2023-02-18T00:51:50.639Z,101199.69
2023-02-18T00:54:17.240Z,101193.69
2023-02-18T00:56:43.875Z,101196.28
2023-02-18T00:59:10.532Z,101192.44
2023-02-18T01:01:37.688Z,101188.13
2023-02-18T01:04:04.518Z,101191.78
2023-02-18T01:06:31.873Z,101188.81
2023-02-18T01:08:58.439Z,101191.13
2023-02-18T01:11:25.374Z,101195.22
2023-02-18T01:13:51.999Z,101179.84
2023-02-18T01:16:18.899Z,101182.63
2023-02-18T01:18:46.144Z,101180.06
2023-02-18T01:21:12.930Z,101189.47
2023-02-18T01:23:41.489Z,101188.41
2023-02-18T01:26:09.916Z,101186.88
2023-02-18T01:28:38.760Z,101186.09
2023-02-18T01:31:12.399Z,101184.38
2023-02-18T01:33:39.609Z,101173.59
2023-02-18T01:36:07.602Z,101173.38
2023-02-18T01:38:34.633Z,101173.22
2023-02-18T01:41:01.505Z,101168.13
2023-02-18T01:43:29.046Z,101174.94
2023-02-18T01:46:00.335Z,101170.50
2023-02-18T01:48:41.289Z,101163.63
2023-02-18T01:51:14.007Z,101159.72
2023-02-18T01:53:47.691Z,101168.56
2023-02-18T01:56:20.500Z,101153.72
2023-02-18T01:58:48.083Z,101153.78
2023-02-18T02:01:14.886Z,101168.13
2023-02-18T02:03:41.556Z,101161.78
2023-02-18T02:06:18.659Z,101155.84
2023-02-18T02:08:51.284Z,101153.63
2023-02-18T02:11:20.759Z,101157.75
2023-02-18T02:14:11.970Z,101147.75
2023-02-18T02:17:01.771Z,101146.53
2023-02-18T02:20:05.995Z,101139.31
2023-02-18T02:22:57.604Z,101129.59
2023-02-18T02:26:04.361Z,101132.69
2023-02-18T02:28:49.046Z,101139.84
2023-02-18T02:31:40.371Z,101133.44
2023-02-18T02:34:38.060Z,101130.66
2023-02-18T02:37:28.284Z,101131.59
2023-02-18T02:40:15.118Z,101121.22
2023-02-18T02:43:07.956Z,101124.00
2023-02-18T02:45:41.778Z,101106.16
2023-02-18T02:48:30.333Z,101109.22
2023-02-18T02:50:56.849Z,101101.69
2023-02-18T02:53:28.724Z,101103.72
2023-02-18T02:55:56.131Z,101108.22
2023-02-18T02:58:23.889Z,101099.00
2023-02-18T03:01:07.874Z,101092.84
2023-02-18T03:04:05.250Z,101095.00
2023-02-18T03:06:57.867Z,101081.78
2023-02-18T03:09:30.577Z,101084.22
2023-02-18T03:12:16.666Z,101067.72
2023-02-18T03:15:05.189Z,101062.38
2023-02-18T03:17:46.091Z,101059.97
2023-02-18T03:20:35.381Z,101050.25
2023-02-18T03:23:07.060Z,101044.19
2023-02-18T03:25:36.702Z,101044.44
2023-02-18T03:28:09.751Z,101043.22
2023-02-18T03:30:57.001Z,101052.78
2023-02-18T03:33:28.719Z,101042.50
2023-02-18T03:35:57.109Z,101035.94
2023-02-18T03:38:38.838Z,101033.25
2023-02-18T03:41:06.482Z,101020.66
2023-02-18T03:43:34.226Z,101017.75
2023-02-18T03:46:02.380Z,101015.44
2023-02-18T03:48:29.311Z,101016.53
2023-02-18T03:50:55.895Z,101011.59
2023-02-18T03:53:22.959Z,101012.91
2023-02-18T03:55:50.184Z,101018.34
2023-02-18T03:58:16.784Z,101012.66
2023-02-18T04:00:43.394Z,101007.31
2023-02-18T04:03:10.149Z,101016.75
2023-02-18T04:05:36.736Z,101006.06
2023-02-18T04:08:03.296Z,101004.47
2023-02-18T04:10:29.816Z,101000.13
2023-02-18T04:12:56.411Z,100991.28
2023-02-18T04:15:22.946Z,100993.22
2023-02-18T04:17:50.097Z,100991.88
2023-02-18T04:20:16.683Z,100984.44
2023-02-18T04:22:43.251Z,100987.22
2023-02-18T04:25:09.811Z,100983.72
2023-02-18T04:27:36.382Z,100977.13
2023-02-18T04:30:04.993Z,100964.31
2023-02-18T04:32:31.682Z,100968.19
2023-02-18T04:34:58.268Z,100965.63
2023-02-18T04:37:25.028Z,100964.56
2023-02-18T04:39:51.626Z,100953.06
2023-02-18T04:42:18.173Z,100949.81
2023-02-18T04:44:47.021Z,100948.03
2023-02-18T04:47:14.083Z,100960.31
2023-02-18T04:49:40.664Z,100950.78
2023-02-18T04:52:07.218Z,100936.31
2023-02-18T04:54:33.825Z,100935.69
2023-02-18T04:57:00.389Z,100931.31
2023-02-18T04:59:26.942Z,100926.81
2023-02-18T05:01:53.484Z,100925.72
2023-02-18T05:04:20.192Z,100923.41
2023-02-18T05:06:46.753Z,100921.16
2023-02-18T05:09:13.437Z,100923.97
2023-02-18T05:11:40.201Z,100920.94
2023-02-18T05:14:06.795Z,100917.56
2023-02-18T05:16:33.408Z,100912.34
2023-02-18T05:19:00.123Z,100906.59
2023-02-18T05:21:26.799Z,100908.88
2023-02-18T05:23:53.404Z,100909.19
2023-02-18T05:26:20.105Z,100902.81
2023-02-18T05:28:46.707Z,100898.53
2023-02-18T05:31:13.294Z,100890.00
2023-02-18T05:33:39.999Z,100889.75
2023-02-18T05:36:07.165Z,100886.34
2023-02-18T05:38:33.995Z,100876.00
2023-02-18T05:41:01.399Z,100866.47
2023-02-18T05:43:27.994Z,100866.41
2023-02-18T05:45:54.476Z,100862.94
2023-02-18T05:48:21.068Z,100859.34
2023-02-18T05:50:47.604Z,100847.16
2023-02-18T05:53:16.092Z,100854.97
2023-02-18T05:55:43.904Z,100851.69
2023-02-18T05:58:10.509Z,100850.28
2023-02-18T06:00:37.030Z,100851.78
2023-02-18T06:03:03.743Z,100850.06
2023-02-18T06:05:30.351Z,100838.16
2023-02-18T06:07:56.980Z,100852.41
2023-02-18T06:10:23.493Z,100840.69
2023-02-18T06:12:50.216Z,100845.69
2023-02-18T06:15:16.868Z,100838.22
2023-02-18T06:17:43.407Z,100834.34
2023-02-18T06:20:10.440Z,100841.44
2023-02-18T06:22:37.007Z,100842.00
2023-02-18T06:25:03.613Z,100843.63
2023-02-18T06:27:30.246Z,100836.91
2023-02-18T06:29:56.762Z,100840.38
2023-02-18T06:32:23.401Z,100854.34
2023-02-18T06:34:50.006Z,100841.97
2023-02-18T06:37:16.568Z,100845.41
2023-02-18T06:39:43.065Z,100852.44
2023-02-18T06:42:09.602Z,100845.56
2023-02-18T06:44:37.912Z,100850.03
2023-02-18T06:47:04.748Z,100844.94
2023-02-18T06:49:31.498Z,100835.22
2023-02-18T06:51:58.056Z,100846.81
2023-02-18T06:54:25.286Z,100842.53
2023-02-18T06:56:51.909Z,100841.84
2023-02-18T06:59:18.400Z,100833.69
2023-02-18T07:01:44.925Z,100830.53
2023-02-18T07:04:11.416Z,100829.81
2023-02-18T07:06:38.045Z,100831.03
2023-02-18T07:09:05.589Z,100819.19
2023-02-18T07:11:32.179Z,100826.13
2023-02-18T07:13:58.764Z,100838.03
2023-02-18T07:16:25.521Z,100831.16
2023-02-18T07:18:52.109Z,100849.59
2023-02-18T07:21:18.754Z,100851.47
2023-02-18T07:23:45.301Z,100855.66
2023-02-18T07:26:14.216Z,100845.59
2023-02-18T07:28:41.811Z,100854.19
2023-02-18T07:31:09.023Z,100841.66
2023-02-18T07:33:35.681Z,100843.47
2023-02-18T07:36:03.398Z,100843.81
2023-02-18T07:38:30.703Z,100860.13
2023-02-18T07:40:58.351Z,100851.66
2023-02-18T07:43:25.335Z,100859.75
2023-02-18T07:45:52.093Z,100846.00
2023-02-18T07:48:18.778Z,100855.03
2023-02-18T07:50:46.567Z,100850.50
2023-02-18T07:53:15.131Z,100848.56
2023-02-18T07:55:51.151Z,100852.50
2023-02-18T07:58:23.821Z,100852.59
2023-02-18T08:00:51.450Z,100851.22
2023-02-18T08:03:18.624Z,100864.31
2023-02-18T08:05:45.419Z,100854.28
2023-02-18T08:08:16.991Z,100860.03
2023-02-18T08:10:44.042Z,100856.50
2023-02-18T08:13:10.706Z,100856.91
2023-02-18T08:15:37.731Z,100850.69
2023-02-18T08:18:05.404Z,100856.84
2023-02-18T08:20:35.412Z,100847.28
2023-02-18T08:23:02.074Z,100854.44
2023-02-18T08:25:29.894Z,100859.44
2023-02-18T08:27:57.369Z,100852.38
2023-02-18T08:30:23.998Z,100862.09
2023-02-18T08:32:51.028Z,100860.63
2023-02-18T08:35:17.630Z,100858.34
2023-02-18T08:37:53.753Z,100860.94
2023-02-18T08:40:21.743Z,100873.53
2023-02-18T08:42:48.409Z,100853.59
2023-02-18T08:45:14.995Z,100854.75
2023-02-18T08:48:17.728Z,100871.28
2023-02-18T08:50:28.189Z,100857.59
2023-02-18T08:52:54.814Z,100851.06
2023-02-18T08:55:21.590Z,100858.97
2023-02-18T08:57:48.721Z,100849.03
2023-02-18T09:00:17.134Z,100856.28
2023-02-18T09:02:44.116Z,100856.06
2023-02-18T09:05:11.224Z,100856.66
2023-02-18T09:07:37.959Z,100852.44
2023-02-18T09:10:05.398Z,100856.19
2023-02-18T09:12:32.289Z,100860.78
2023-02-18T09:14:59.102Z,100867.31
2023-02-18T09:17:25.663Z,100863.81
2023-02-18T09:19:53.493Z,100866.59
2023-02-18T09:22:20.098Z,100866.72
2023-02-18T09:24:46.844Z,100881.72
2023-02-18T09:27:13.706Z,100881.00
2023-02-18T09:29:41.480Z,100877.16
2023-02-18T09:32:09.220Z,100869.38
2023-02-18T09:34:36.709Z,100867.41
2023-02-18T09:37:03.879Z,100874.56
2023-02-18T09:39:30.525Z,100864.38
2023-02-18T09:42:00.373Z,100870.09
2023-02-18T09:44:44.008Z,100870.47
2023-02-18T09:47:16.206Z,100860.66
2023-02-18T09:49:52.162Z,100870.00
2023-02-18T09:52:25.636Z,100878.84
2023-02-18T09:54:52.367Z,100863.22
2023-02-18T09:57:41.261Z,100870.78
2023-02-18T10:00:15.629Z,100856.72
2023-02-18T10:02:57.786Z,100848.97
2023-02-18T10:05:28.120Z,100845.78
2023-02-18T10:08:00.508Z,100861.31
2023-02-18T10:10:43.477Z,100840.81
2023-02-18T10:13:19.149Z,100859.44
2023-02-18T10:15:46.718Z,100865.00
2023-02-18T10:18:32.522Z,100879.59
2023-02-18T10:21:22.413Z,100875.66
2023-02-18T10:24:10.942Z,100877.69
2023-02-18T10:26:38.329Z,100876.50
2023-02-18T10:29:13.792Z,100874.34
2023-02-18T10:31:43.013Z,100874.31
2023-02-18T10:34:53.720Z,100873.84
2023-02-18T10:37:26.344Z,100883.00
2023-02-18T10:40:24.720Z,100882.41
2023-02-18T10:43:28.327Z,100885.00
2023-02-18T10:46:06.926Z,100894.53
2023-02-18T10:48:54.975Z,100894.44
2023-02-18T10:51:25.891Z,100898.41
2023-02-18T10:53:53.885Z,100906.16
2023-02-18T10:56:48.457Z,100908.28
2023-02-18T10:59:23.925Z,100903.31
2023-02-18T11:02:17.335Z,100908.41
2023-02-18T11:04:45.686Z,100911.19
2023-02-18T11:07:15.732Z,100889.47
2023-02-18T11:09:48.030Z,100911.44
2023-02-18T11:12:23.076Z,100904.50
2023-02-18T11:15:04.979Z,100921.00
2023-02-18T11:17:33.774Z,100916.16
2023-02-18T11:20:02.317Z,100910.94
2023-02-18T11:22:36.758Z,100907.28
2023-02-18T11:25:18.867Z,100919.34
2023-02-18T11:27:49.772Z,100902.66
2023-02-18T11:30:22.759Z,100906.47
2023-02-18T11:32:53.562Z,100913.50
2023-02-18T11:35:23.793Z,100911.00
2023-02-18T11:37:51.564Z,100912.88
2023-02-18T11:40:36.329Z,100890.28
2023-02-18T11:43:15.196Z,100911.75
2023-02-18T11:45:42.280Z,100910.41
2023-02-18T11:48:16.442Z,100897.78
2023-02-18T11:50:44.016Z,100904.13
2023-02-18T11:53:35.289Z,100904.78
2023-02-18T11:56:20.198Z,100904.03
2023-02-18T11:58:48.483Z,100909.47
2023-02-18T12:01:41.387Z,100899.66
2023-02-18T12:04:13.234Z,100906.81
2023-02-18T12:06:39.773Z,100898.00
2023-02-18T12:09:36.448Z,100915.19
2023-02-18T12:12:16.496Z,100905.53
2023-02-18T12:14:43.796Z,100912.00
2023-02-18T12:17:30.852Z,100901.34
2023-02-18T12:20:14.967Z,100906.16
2023-02-18T12:22:44.322Z,100901.06
2023-02-18T12:25:25.142Z,100890.94
2023-02-18T12:28:11.746Z,100899.19
2023-02-18T12:30:50.453Z,100908.06
2023-02-18T12:33:46.772Z,100905.41
2023-02-18T12:36:31.765Z,100909.47
2023-02-18T12:39:45.008Z,100904.66
2023-02-18T12:42:19.495Z,100899.66
2023-02-18T12:45:02.008Z,100897.00
2023-02-18T12:47:39.692Z,100908.41
2023-02-18T12:50:28.209Z,100903.53
2023-02-18T12:53:13.096Z,100901.50
2023-02-18T12:55:48.645Z,100901.63
2023-02-18T12:58:20.167Z,100895.41
2023-02-18T13:01:11.829Z,100891.06
2023-02-18T13:04:10.215Z,100897.34
2023-02-18T13:06:50.306Z,100888.75
2023-02-18T13:09:32.139Z,100899.44
2023-02-18T13:12:24.257Z,100889.25
2023-02-18T13:15:18.979Z,100887.88
2023-02-18T13:17:47.360Z,100887.56
2023-02-18T13:20:14.487Z,100897.25
2023-02-18T13:22:41.760Z,100894.91
2023-02-18T13:25:13.422Z,100897.56
2023-02-18T13:28:05.104Z,100901.44
2023-02-18T13:30:40.511Z,100892.38
2023-02-18T13:33:16.179Z,100894.69
2023-02-18T13:35:52.214Z,100899.63
2023-02-18T13:38:46.160Z,100895.13
2023-02-18T13:41:12.757Z,100884.28
2023-02-18T13:48:27.863Z,100884.88
2023-02-18T13:51:00.479Z,100889.56
2023-02-18T13:53:31.856Z,100879.88
2023-02-18T13:56:05.371Z,100879.81
2023-02-18T13:58:49.510Z,100881.34
2023-02-18T14:01:31.918Z,100877.69
2023-02-18T14:04:00.450Z,100870.78
2023-02-18T14:06:33.490Z,100869.97
2023-02-18T14:09:12.368Z,100872.34
2023-02-18T14:11:49.692Z,100879.03
2023-02-18T14:14:25.995Z,100882.06
2023-02-18T14:17:14.669Z,100879.53
2023-02-18T14:19:41.284Z,100874.88
2023-02-18T14:22:28.274Z,100876.44
2023-02-18T14:25:10.849Z,100876.81
2023-02-18T14:27:42.518Z,100887.66
2023-02-18T14:30:21.360Z,100888.91
2023-02-18T14:32:50.716Z,100880.97
2023-02-18T14:35:42.903Z,100878.88
2023-02-18T14:38:28.453Z,100897.63
2023-02-18T14:41:13.867Z,100891.13
2023-02-18T14:43:49.337Z,100895.69
2023-02-18T14:46:16.014Z,100901.91
2023-02-18T14:49:12.562Z,100899.66
2023-02-18T14:51:43.314Z,100893.66
2023-02-18T14:54:16.253Z,100900.16
2023-02-18T14:57:03.899Z,100901.03
2023-02-18T14:59:35.325Z,100898.50
2023-02-18T15:02:02.003Z,100893.69
2023-02-18T15:04:29.129Z,100894.09
2023-02-18T15:07:04.592Z,100900.19
2023-02-18T15:09:31.852Z,100898.81
2023-02-18T15:12:06.567Z,100897.22
2023-02-18T15:14:39.660Z,100892.84
2023-02-18T15:17:11.596Z,100901.56
2023-02-18T15:19:42.936Z,100910.53
2023-02-18T15:22:22.048Z,100916.72
2023-02-18T15:24:50.693Z,100903.34
2023-02-18T15:27:23.744Z,100907.50
2023-02-18T15:29:52.816Z,100902.84
2023-02-18T15:32:24.050Z,100901.97
2023-02-18T15:34:53.156Z,100902.31
2023-02-18T15:37:20.463Z,100912.81
2023-02-18T15:39:47.729Z,100912.59
2023-02-18T15:42:23.793Z,100911.41
2023-02-18T15:44:55.867Z,100912.22
2023-02-18T15:47:23.677Z,100899.16
2023-02-18T15:49:54.174Z,100912.06
2023-02-18T15:52:30.486Z,100905.69
2023-02-18T15:55:03.140Z,100904.34
2023-02-18T15:57:30.586Z,100895.63
2023-02-18T16:00:18.713Z,100897.31
2023-02-18T16:03:22.630Z,100912.34
2023-02-18T16:05:50.769Z,100899.34
2023-02-18T16:08:25.454Z,100907.56
2023-02-18T16:11:06.548Z,100907.38
2023-02-18T16:13:35.265Z,100916.13
2023-02-18T16:16:02.023Z,100917.84
2023-02-18T16:18:34.897Z,100904.94
2023-02-18T16:21:43.856Z,100915.97
2023-02-18T16:24:28.593Z,100908.34
2023-02-18T16:27:00.039Z,100914.78
2023-02-18T16:29:35.134Z,100921.69
2023-02-18T16:32:02.003Z,100925.97
2023-02-18T16:34:28.968Z,100921.88
2023-02-18T16:37:14.169Z,100927.78
2023-02-18T16:39:41.041Z,100920.28
2023-02-18T16:42:11.402Z,100922.97
2023-02-18T16:44:38.796Z,100913.88
2023-02-18T16:47:06.260Z,100926.78
2023-02-18T16:49:34.291Z,100916.84
2023-02-18T16:52:06.696Z,100921.34
2023-02-18T16:54:34.481Z,100917.50
2023-02-18T16:57:00.966Z,100927.97
2023-02-18T16:59:27.545Z,100917.88
2023-02-18T17:01:55.902Z,100919.81
2023-02-18T17:04:23.441Z,100929.53
2023-02-18T17:06:50.083Z,100936.56
2023-02-18T17:09:18.136Z,100937.53
2023-02-18T17:11:46.366Z,100936.66
2023-02-18T17:14:17.996Z,100943.63
2023-02-18T17:16:46.329Z,100942.91
2023-02-18T17:19:13.103Z,100933.19
2023-02-18T17:21:39.976Z,100931.97
2023-02-18T17:24:14.795Z,100940.13
2023-02-18T17:26:41.855Z,100938.78
2023-02-18T17:29:08.806Z,100950.91
2023-02-18T17:31:47.192Z,100946.91
2023-02-18T17:34:21.708Z,100952.56
2023-02-18T17:36:48.323Z,100953.59
2023-02-18T17:39:17.651Z,100945.97
2023-02-18T17:41:44.598Z,100938.25
2023-02-18T17:44:19.571Z,100933.63
2023-02-18T17:46:46.638Z,100949.53
2023-02-18T17:49:13.407Z,100953.38
2023-02-18T17:51:40.145Z,100947.13
2023-02-18T17:54:17.464Z,100932.41
2023-02-18T17:56:45.071Z,100948.81
2023-02-18T17:59:12.016Z,100947.44
2023-02-18T18:01:38.979Z,100951.44
2023-02-18T18:04:13.233Z,100940.34
2023-02-18T18:06:40.091Z,100949.78
2023-02-18T18:09:06.890Z,100940.22
2023-02-18T18:11:33.986Z,100944.56
2023-02-18T18:14:01.121Z,100947.19
2023-02-18T18:16:31.548Z,100940.25
2023-02-18T18:18:58.141Z,100942.63
2023-02-18T18:21:35.487Z,100943.22
2023-02-18T18:24:02.530Z,100955.03
2023-02-18T18:26:30.000Z,100941.44
2023-02-18T18:28:56.969Z,100951.72
2023-02-18T18:31:23.708Z,100938.47
2023-02-18T18:33:52.998Z,100944.38
2023-02-18T18:36:20.898Z,100932.06
2023-02-18T18:38:47.451Z,100941.69
2023-02-18T18:41:19.438Z,100944.25
2023-02-18T18:43:46.821Z,100947.97
2023-02-18T18:46:13.545Z,100942.06
2023-02-18T18:48:40.311Z,100939.34
2023-02-18T18:51:07.361Z,100942.41
2023-02-18T18:53:35.561Z,100932.34
2023-02-18T18:56:06.992Z,100937.16
2023-02-18T18:58:34.062Z,100933.25
2023-02-18T19:01:03.286Z,100941.38
2023-02-18T19:03:31.245Z,100935.28
2023-02-18T19:05:57.930Z,100929.06
2023-02-18T19:08:24.936Z,100923.91
2023-02-18T19:10:54.068Z,100929.50
2023-02-18T19:13:29.470Z,100925.28
2023-02-18T19:16:19.298Z,100932.88
2023-02-18T19:18:47.060Z,100931.63
2023-02-18T19:21:13.860Z,100924.91
2023-02-18T19:23:40.736Z,100916.78
2023-02-18T19:26:08.361Z,100914.34
2023-02-18T19:28:35.366Z,100913.91
2023-02-18T19:31:02.097Z,100924.25
2023-02-18T19:33:28.863Z,100917.03
2023-02-18T19:35:55.538Z,100913.91
2023-02-18T19:38:22.173Z,100917.91
2023-02-18T19:40:49.049Z,100909.00
2023-02-18T19:43:16.053Z,100917.16
2023-02-18T19:45:45.325Z,100910.97
2023-02-18T19:48:13.264Z,100920.38
2023-02-18T19:50:41.719Z,100907.59
2023-02-18T19:53:09.124Z,100915.59
2023-02-18T19:55:35.800Z,100912.31
2023-02-18T19:58:02.455Z,100907.81
2023-02-18T20:00:28.985Z,100891.22
2023-02-18T20:02:55.629Z,100901.72
2023-02-18T20:05:22.287Z,100884.94
2023-02-18T20:07:48.929Z,100886.13
2023-02-18T20:10:17.816Z,100883.66
2023-02-18T20:12:44.549Z,100882.28
2023-02-18T20:15:11.394Z,100885.44
2023-02-18T20:17:39.180Z,100888.19
2023-02-18T20:20:07.066Z,100882.59
2023-02-18T20:22:33.925Z,100887.19
2023-02-18T20:25:00.492Z,100876.22
2023-02-18T20:27:27.055Z,100871.44
2023-02-18T20:29:53.668Z,100868.84
2023-02-18T20:32:20.357Z,100865.66
2023-02-18T20:34:47.046Z,100862.69
2023-02-18T20:37:13.803Z,100862.94
2023-02-18T20:39:40.445Z,100861.25
2023-02-18T20:42:15.834Z,100863.91
2023-02-18T20:44:42.880Z,100864.34
2023-02-18T20:47:09.405Z,100860.13
2023-02-18T20:49:36.012Z,100861.94
2023-02-18T20:52:02.604Z,100860.56
2023-02-18T20:56:55.937Z,100860.06
2023-02-18T20:59:22.605Z,100860.81
2023-02-18T21:01:49.549Z,100859.16
2023-02-18T21:04:18.523Z,100861.13
2023-02-18T21:06:45.584Z,100850.28
2023-02-18T21:09:13.680Z,100857.66
2023-02-18T21:11:40.696Z,100850.75
2023-02-18T21:14:07.538Z,100858.81
2023-02-18T21:16:38.493Z,100864.03
2023-02-18T21:19:12.228Z,100852.47
2023-02-18T21:21:39.101Z,100851.31
2023-02-18T21:24:06.132Z,100838.28
2023-02-18T21:26:33.289Z,100838.56
2023-02-18T21:29:01.929Z,100827.16
2023-02-18T21:31:34.783Z,100830.25
2023-02-18T21:34:02.044Z,100840.34
2023-02-18T21:36:30.362Z,100833.34
2023-02-18T21:39:00.163Z,100832.16
2023-02-18T21:41:27.860Z,100831.63
2023-02-18T21:43:55.114Z,100838.59
2023-02-18T21:46:26.876Z,100836.47
2023-02-18T21:49:03.399Z,100830.78
2023-02-18T21:51:53.864Z,100838.47
2023-02-18T21:54:32.263Z,100843.81
2023-02-18T21:57:00.693Z,100841.94
2023-02-18T21:59:29.689Z,100852.03
2023-02-18T22:01:59.622Z,100835.19
2023-02-18T22:04:26.926Z,100835.50
2023-02-18T22:06:53.491Z,100836.53
2023-02-18T22:09:20.087Z,100830.84
2023-02-18T22:11:46.673Z,100832.34
2023-02-18T22:14:14.644Z,100832.38
2023-02-18T22:16:41.648Z,100823.41
2023-02-18T22:19:10.778Z,100821.81
2023-02-18T22:21:37.597Z,100815.38
2023-02-18T22:24:05.822Z,100809.19
2023-02-18T22:26:32.915Z,100807.19
2023-02-18T22:29:00.767Z,100803.84
2023-02-18T22:31:29.721Z,100795.28
2023-02-18T22:33:59.604Z,100789.53
2023-02-18T22:36:28.153Z,100781.63
2023-02-18T22:38:55.237Z,100775.81
2023-02-18T22:41:23.984Z,100774.84
2023-02-18T22:43:59.129Z,100762.38
2023-02-18T22:46:26.994Z,100754.19
2023-02-18T22:48:55.888Z,100747.03
2023-02-18T22:51:28.852Z,100757.44
2023-02-18T22:53:57.278Z,100778.94
2023-02-18T22:56:25.809Z,100780.28
2023-02-18T22:58:54.104Z,100771.81
2023-02-18T23:01:35.967Z,100751.66
2023-02-18T23:04:08.998Z,100770.88
2023-02-18T23:06:37.011Z,100759.97
2023-02-18T23:09:05.014Z,100769.00
2023-02-18T23:11:31.673Z,100769.91
2023-02-18T23:14:16.883Z,100772.59
2023-02-18T23:17:03.584Z,100786.19
2023-02-18T23:19:32.166Z,100778.53
2023-02-18T23:21:59.264Z,100782.88
2023-02-18T23:24:25.863Z,100759.44
2023-02-18T23:26:52.523Z,100769.66
2023-02-18T23:29:19.571Z,100756.25
2023-02-18T23:31:46.216Z,100754.56
2023-02-18T23:34:14.913Z,100767.19
2023-02-18T23:36:42.951Z,100756.97
2023-02-18T23:39:13.303Z,100761.78
2023-02-18T23:41:40.081Z,100755.44
2023-02-18T23:44:09.836Z,100756.78
2023-02-18T23:46:37.136Z,100753.25
2023-02-18T23:49:04.981Z,100750.69
2023-02-18T23:51:32.131Z,100756.59
2023-02-18T23:54:01.502Z,100751.84
2023-02-18T23:56:28.798Z,100750.91
2023-02-18T23:59:00.498Z,100749.28
